createdAt,value
2022-08-30T00:02:19.547Z,102312.28
2022-08-30T00:04:47.007Z,102318.19
2022-08-30T00:07:14.406Z,102315.06
2022-08-30T00:09:41.396Z,102312.63
2022-08-30T00:12:08.987Z,102317.03
2022-08-30T00:14:36.126Z,102316.00
2022-08-30T00:17:03.454Z,102316.78
2022-08-30T00:19:31.223Z,102309.78
2022-08-30T00:21:58.230Z,102303.91
2022-08-30T00:24:25.155Z,102301.56
2022-08-30T00:26:52.235Z,102310.38
2022-08-30T00:29:19.202Z,102302.38
2022-08-30T00:31:46.382Z,102303.19
2022-08-30T00:34:13.467Z,102305.25
2022-08-30T00:36:40.382Z,102298.16
2022-08-30T00:39:07.235Z,102305.34
2022-08-30T00:41:34.505Z,102301.53
2022-08-30T00:44:01.487Z,102303.59
2022-08-30T00:46:28.382Z,102301.72
2022-08-30T00:48:56.425Z,102296.59
2022-08-30T00:51:24.196Z,102285.13
2022-08-30T00:53:57.250Z,102295.59
2022-08-30T00:56:25.963Z,102298.75
2022-08-30T00:58:57.657Z,102299.91
2022-08-30T01:01:25.636Z,102302.34
2022-08-30T01:03:53.561Z,102300.28
2022-08-30T01:06:20.673Z,102300.63
2022-08-30T01:08:48.269Z,102294.63
2022-08-30T01:11:20.186Z,102306.28
2022-08-30T01:13:48.721Z,102303.88
2022-08-30T01:16:15.995Z,102310.22
2022-08-30T01:18:44.622Z,102303.50
2022-08-30T01:21:20.442Z,102312.28
2022-08-30T01:23:50.496Z,102308.72
2022-08-30T01:26:19.227Z,102310.41
2022-08-30T01:28:54.834Z,102306.59
2022-08-30T01:31:22.232Z,102313.41
2022-08-30T01:33:49.235Z,102317.78
2022-08-30T01:36:17.362Z,102309.81
2022-08-30T01:38:54.110Z,102320.94
2022-08-30T01:41:29.170Z,102318.59
2022-08-30T01:44:00.308Z,102321.03
2022-08-30T01:46:30.812Z,102317.78
2022-08-30T01:48:58.404Z,102319.78
2022-08-30T01:51:28.096Z,102316.19
2022-08-30T01:53:55.051Z,102323.25
2022-08-30T01:56:23.857Z,102320.13
2022-08-30T01:58:51.813Z,102324.03
2022-08-30T02:01:22.220Z,102330.44
2022-08-30T02:03:49.355Z,102322.56
2022-08-30T02:06:18.934Z,102320.94
2022-08-30T02:08:46.396Z,102314.56
2022-08-30T02:11:14.218Z,102330.25
2022-08-30T02:13:43.147Z,102313.66
2022-08-30T02:16:13.340Z,102316.44
2022-08-30T02:18:40.849Z,102317.16
2022-08-30T02:21:09.311Z,102317.44
2022-08-30T02:23:36.899Z,102314.22
2022-08-30T02:26:04.691Z,102316.06
2022-08-30T02:28:31.787Z,102321.91
2022-08-30T02:31:00.335Z,102322.63
2022-08-30T02:33:27.339Z,102324.50
2022-08-30T02:35:54.285Z,102322.72
2022-08-30T02:38:21.141Z,102319.38
2022-08-30T02:40:47.956Z,102326.34
2022-08-30T02:43:15.652Z,102327.03
2022-08-30T02:45:43.052Z,102329.34
2022-08-30T02:48:10.079Z,102333.31
2022-08-30T02:50:42.524Z,102331.16
2022-08-30T02:53:09.806Z,102331.38
2022-08-30T02:55:41.298Z,102329.31
2022-08-30T02:58:08.964Z,102325.16
2022-08-30T03:00:35.981Z,102331.34
2022-08-30T03:03:04.143Z,102325.31
2022-08-30T03:05:33.449Z,102323.16
2022-08-30T03:08:01.093Z,102329.91
2022-08-30T03:10:28.873Z,102325.41
2022-08-30T03:12:56.271Z,102324.97
2022-08-30T03:15:26.276Z,102321.38
2022-08-30T03:17:54.837Z,102317.00
2022-08-30T03:20:23.252Z,102318.97
2022-08-30T03:22:50.446Z,102317.34
2022-08-30T03:25:17.614Z,102319.28
2022-08-30T03:27:44.500Z,102318.84
2022-08-30T03:30:12.557Z,102327.06
2022-08-30T03:32:40.610Z,102326.41
2022-08-30T03:35:10.663Z,102326.53
2022-08-30T03:37:37.522Z,102330.34
2022-08-30T03:40:07.614Z,102330.47
2022-08-30T03:42:35.523Z,102328.38
2022-08-30T03:45:02.466Z,102328.75
2022-08-30T03:47:29.626Z,102320.53
2022-08-30T03:49:57.560Z,102327.22
2022-08-30T03:52:24.478Z,102316.81
2022-08-30T03:54:51.340Z,102329.63
2022-08-30T03:57:19.983Z,102327.66
2022-08-30T03:59:51.768Z,102322.13
2022-08-30T04:02:19.113Z,102333.09
2022-08-30T04:04:46.081Z,102333.09
2022-08-30T04:07:12.971Z,102329.88
2022-08-30T04:09:40.072Z,102331.38
2022-08-30T04:12:07.076Z,102333.72
2022-08-30T04:14:34.025Z,102332.78
2022-08-30T04:17:01.015Z,102337.38
2022-08-30T04:19:28.248Z,102331.06
2022-08-30T04:21:57.318Z,102334.28
2022-08-30T04:24:24.680Z,102337.38
2022-08-30T04:26:51.713Z,102334.97
2022-08-30T04:29:18.858Z,102335.78
2022-08-30T04:31:46.297Z,102338.91
2022-08-30T04:34:14.326Z,102347.91
2022-08-30T04:36:41.393Z,102340.75
2022-08-30T04:39:08.485Z,102344.31
2022-08-30T04:41:36.856Z,102344.69
2022-08-30T04:44:03.991Z,102341.91
2022-08-30T04:46:31.026Z,102352.31
2022-08-30T04:48:58.438Z,102351.94
2022-08-30T04:51:25.216Z,102354.41
2022-08-30T04:53:52.027Z,102348.03
2022-08-30T04:56:22.791Z,102350.81
2022-08-30T04:58:53.186Z,102352.88
2022-08-30T05:01:26.634Z,102354.16
2022-08-30T05:03:55.417Z,102351.88
2022-08-30T05:06:24.028Z,102353.47
2022-08-30T05:08:52.993Z,102356.59
2022-08-30T05:11:20.342Z,102357.06
2022-08-30T05:13:47.715Z,102369.53
2022-08-30T05:16:20.234Z,102374.38
2022-08-30T05:18:49.238Z,102375.31
2022-08-30T05:21:22.197Z,102374.50
2022-08-30T05:23:50.692Z,102383.66
2022-08-30T05:26:21.572Z,102378.34
2022-08-30T05:28:49.006Z,102375.34
2022-08-30T05:31:36.281Z,102365.16
2022-08-30T05:34:04.188Z,102372.91
2022-08-30T05:36:34.968Z,102365.63
2022-08-30T05:39:02.181Z,102370.94
2022-08-30T05:41:33.227Z,102373.22
2022-08-30T05:44:01.946Z,102380.63
2022-08-30T05:49:07.765Z,102375.03
2022-08-30T05:51:41.105Z,102372.81
2022-08-30T05:54:13.099Z,102375.00
2022-08-30T05:56:41.699Z,102377.25
2022-08-30T05:59:08.915Z,102387.78
2022-08-30T06:01:42.095Z,102382.88
2022-08-30T06:04:10.858Z,102391.44
2022-08-30T06:06:39.835Z,102390.63
2022-08-30T06:09:08.715Z,102397.91
2022-08-30T06:11:35.997Z,102396.84
2022-08-30T06:14:04.740Z,102394.28
2022-08-30T06:16:33.394Z,102393.75
2022-08-30T06:19:00.648Z,102396.38
2022-08-30T06:21:32.068Z,102400.97
2022-08-30T06:23:59.255Z,102398.47
2022-08-30T06:26:27.693Z,102406.19
2022-08-30T06:28:55.600Z,102396.06
2022-08-30T06:31:24.752Z,102405.47
2022-08-30T06:33:52.791Z,102400.16
2022-08-30T06:36:22.699Z,102403.66
2022-08-30T06:38:52.073Z,102398.28
2022-08-30T06:41:22.459Z,102404.41
2022-08-30T06:43:50.099Z,102398.72
2022-08-30T06:46:20.467Z,102398.34
2022-08-30T06:48:48.467Z,102404.09
2022-08-30T06:51:20.483Z,102400.28
2022-08-30T06:53:49.081Z,102405.75
2022-08-30T06:56:17.366Z,102405.81
2022-08-30T06:58:46.122Z,102404.44
2022-08-30T07:01:19.905Z,102413.41
2022-08-30T07:03:46.872Z,102411.22
2022-08-30T07:06:14.370Z,102404.50
2022-08-30T07:08:41.581Z,102412.31
2022-08-30T07:11:09.099Z,102413.69
2022-08-30T07:13:36.972Z,102415.91
2022-08-30T07:16:14.334Z,102418.53
2022-08-30T07:18:56.534Z,102426.44
2022-08-30T07:21:44.117Z,102424.66
2022-08-30T07:24:12.831Z,102428.00
2022-08-30T07:26:42.940Z,102435.31
2022-08-30T07:29:10.247Z,102440.66
2022-08-30T07:31:37.792Z,102437.19
2022-08-30T07:34:06.894Z,102440.47
2022-08-30T07:36:34.873Z,102440.53
2022-08-30T07:39:01.914Z,102440.28
2022-08-30T07:41:32.243Z,102446.75
2022-08-30T07:43:59.298Z,102433.28
2022-08-30T07:46:26.470Z,102431.75
2022-08-30T07:48:56.974Z,102432.31
2022-08-30T07:51:26.521Z,102434.47
2022-08-30T07:53:54.275Z,102440.06
2022-08-30T07:56:22.160Z,102447.75
2022-08-30T07:58:49.762Z,102443.06
2022-08-30T08:01:18.308Z,102444.22
2022-08-30T08:03:46.694Z,102445.09
2022-08-30T08:06:15.613Z,102444.72
2022-08-30T08:08:43.057Z,102449.59
2022-08-30T08:11:17.739Z,102447.81
2022-08-30T08:13:53.252Z,102445.50
2022-08-30T08:16:22.691Z,102449.56
2022-08-30T08:18:49.680Z,102452.16
2022-08-30T08:21:16.641Z,102440.69
2022-08-30T08:23:43.827Z,102450.44
2022-08-30T08:26:10.800Z,102458.16
2022-08-30T08:28:37.852Z,102459.56
2022-08-30T08:31:14.756Z,102453.09
2022-08-30T08:33:44.078Z,102453.66
2022-08-30T08:36:11.042Z,102453.34
2022-08-30T08:38:38.291Z,102453.81
2022-08-30T08:41:36.469Z,102462.25
2022-08-30T08:44:25.533Z,102459.59
2022-08-30T08:47:16.559Z,102460.91
2022-08-30T08:49:46.436Z,102457.34
2022-08-30T08:52:38.850Z,102459.00
2022-08-30T08:55:12.616Z,102461.78
2022-08-30T08:57:39.809Z,102462.63
2022-08-30T09:00:10.389Z,102457.06
2022-08-30T09:02:46.948Z,102459.91
2022-08-30T09:05:19.145Z,102469.03
2022-08-30T09:07:52.222Z,102465.31
2022-08-30T09:10:40.596Z,102459.78
2022-08-30T09:13:08.821Z,102452.28
2022-08-30T09:15:40.949Z,102454.72
2022-08-30T09:18:19.181Z,102456.66
2022-08-30T09:20:50.579Z,102466.75
2022-08-30T09:23:24.546Z,102462.75
2022-08-30T09:25:56.068Z,102464.03
2022-08-30T09:28:32.149Z,102465.97
2022-08-30T09:31:03.767Z,102458.34
2022-08-30T09:33:31.701Z,102467.13
2022-08-30T09:36:13.071Z,102463.00
2022-08-30T09:38:40.461Z,102463.06
2022-08-30T09:41:29.416Z,102455.91
2022-08-30T09:44:30.570Z,102451.50
2022-08-30T09:47:00.299Z,102449.88
2022-08-30T09:49:34.244Z,102456.66
2022-08-30T09:52:04.261Z,102450.88
2022-08-30T09:54:42.720Z,102458.66
2022-08-30T09:57:37.095Z,102457.75
2022-08-30T10:00:21.994Z,102453.97
2022-08-30T10:03:36.166Z,102454.00
2022-08-30T10:06:18.841Z,102458.78
2022-08-30T10:08:49.733Z,102459.28
2022-08-30T10:11:25.826Z,102462.38
2022-08-30T10:14:14.124Z,102447.16
2022-08-30T10:16:47.636Z,102454.94
2022-08-30T10:19:48.106Z,102462.63
2022-08-30T10:22:38.760Z,102459.44
2022-08-30T10:25:17.421Z,102465.81
2022-08-30T10:28:19.130Z,102477.47
2022-08-30T10:30:55.992Z,102468.31
2022-08-30T10:33:38.029Z,102479.09
2022-08-30T10:36:10.466Z,102470.22
2022-08-30T10:38:41.174Z,102462.97
2022-08-30T10:41:38.359Z,102469.47
2022-08-30T10:44:19.304Z,102467.16
2022-08-30T10:47:02.752Z,102471.63
2022-08-30T10:49:35.008Z,102481.13
2022-08-30T10:52:28.012Z,102468.69
2022-08-30T10:55:00.851Z,102465.88
2022-08-30T10:57:27.667Z,102461.50
2022-08-30T11:00:05.937Z,102464.75
2022-08-30T11:03:13.755Z,102463.94
2022-08-30T11:06:27.276Z,102455.06
2022-08-30T11:09:08.214Z,102449.50
2022-08-30T11:11:59.357Z,102446.72
2022-08-30T11:14:26.614Z,102441.16
2022-08-30T11:16:56.348Z,102439.59
2022-08-30T11:19:41.808Z,102434.72
2022-08-30T11:22:14.942Z,102438.28
2022-08-30T11:25:12.940Z,102431.88
2022-08-30T11:27:47.890Z,102427.53
2022-08-30T11:30:26.961Z,102427.91
2022-08-30T11:33:02.079Z,102424.25
2022-08-30T11:35:55.496Z,102426.66
2022-08-30T11:38:30.795Z,102436.75
2022-08-30T11:41:00.624Z,102429.13
2022-08-30T11:43:39.828Z,102424.72
2022-08-30T11:46:19.532Z,102429.53
2022-08-30T11:48:54.290Z,102427.56
2022-08-30T11:51:54.142Z,102421.13
2022-08-30T11:54:55.998Z,102419.13
2022-08-30T11:57:45.535Z,102423.13
2022-08-30T12:00:35.041Z,102422.72
2022-08-30T12:03:30.022Z,102406.19
2022-08-30T12:06:01.842Z,102409.47
2022-08-30T12:08:28.614Z,102419.91
2022-08-30T12:11:05.535Z,102421.91
2022-08-30T12:13:35.302Z,102420.31
2022-08-30T12:16:05.364Z,102414.72
2022-08-30T12:18:37.431Z,102409.09
2022-08-30T12:21:23.844Z,102413.50
2022-08-30T12:23:57.436Z,102407.06
2022-08-30T12:26:26.049Z,102409.06
2022-08-30T12:29:10.976Z,102405.88
2022-08-30T12:31:46.610Z,102412.28
2022-08-30T12:34:25.862Z,102414.31
2022-08-30T12:37:04.799Z,102414.72
2022-08-30T12:39:34.579Z,102406.25
2022-08-30T12:42:32.405Z,102403.47
2022-08-30T12:45:04.359Z,102403.03
2022-08-30T12:47:43.554Z,102405.06
2022-08-30T12:50:15.431Z,102402.25
2022-08-30T12:52:47.562Z,102411.06
2022-08-30T12:55:21.226Z,102409.09
2022-08-30T12:58:01.565Z,102399.84
2022-08-30T13:00:39.656Z,102398.53
2022-08-30T13:03:34.475Z,102401.38
2022-08-30T13:06:02.982Z,102390.84
2022-08-30T13:08:36.950Z,102394.94
2022-08-30T13:11:10.953Z,102396.94
2022-08-30T13:13:44.476Z,102396.59
2022-08-30T13:16:21.014Z,102399.41
2022-08-30T13:18:56.495Z,102400.56
2022-08-30T13:21:25.603Z,102393.66
2022-08-30T13:24:06.547Z,102394.84
2022-08-30T13:26:36.957Z,102392.53
2022-08-30T13:29:14.396Z,102388.56
2022-08-30T13:31:41.359Z,102388.56
2022-08-30T13:34:08.279Z,102395.72
2022-08-30T13:36:39.893Z,102388.09
2022-08-30T13:39:12.379Z,102391.66
2022-08-30T13:41:39.944Z,102383.66
2022-08-30T13:44:11.242Z,102380.47
2022-08-30T13:46:43.463Z,102381.31
2022-08-30T13:52:24.055Z,102372.53
2022-08-30T13:54:52.976Z,102379.28
2022-08-30T14:00:17.685Z,102373.28
2022-08-30T14:02:51.539Z,102378.03
2022-08-30T14:05:47.568Z,102378.47
2022-08-30T14:11:01.967Z,102378.72
2022-08-30T14:13:29.867Z,102379.78
2022-08-30T14:18:46.903Z,102374.59
2022-08-30T14:21:14.287Z,102377.38
2022-08-30T14:23:41.093Z,102369.44
2022-08-30T14:26:14.069Z,102372.69
2022-08-30T14:28:44.917Z,102376.34
2022-08-30T14:31:13.393Z,102383.66
2022-08-30T14:33:40.485Z,102370.44
2022-08-30T14:36:12.934Z,102366.84
2022-08-30T14:38:43.504Z,102366.41
2022-08-30T14:41:10.970Z,102369.06
2022-08-30T14:43:40.547Z,102368.41
2022-08-30T14:46:09.246Z,102369.94
2022-08-30T14:48:38.609Z,102363.38
2022-08-30T14:51:17.334Z,102353.34
2022-08-30T14:53:45.304Z,102359.88
2022-08-30T14:56:15.533Z,102359.38
2022-08-30T14:58:43.307Z,102362.94
2022-08-30T15:01:12.692Z,102365.69
2022-08-30T15:03:41.366Z,102368.53
2022-08-30T15:06:09.864Z,102369.56
2022-08-30T15:08:39.356Z,102359.50
2022-08-30T15:11:11.518Z,102358.16
2022-08-30T15:13:40.313Z,102356.06
2022-08-30T15:16:12.154Z,102358.97
2022-08-30T15:18:39.434Z,102357.88
2022-08-30T15:21:09.662Z,102360.25
2022-08-30T15:23:38.005Z,102347.38
2022-08-30T15:26:08.072Z,102350.94
2022-08-30T15:28:36.341Z,102353.88
2022-08-30T15:31:08.788Z,102359.53
2022-08-30T15:33:38.061Z,102351.88
2022-08-30T15:36:05.950Z,102348.88
2022-08-30T15:38:33.330Z,102349.72
2022-08-30T15:41:04.288Z,102355.06
2022-08-30T15:43:31.589Z,102347.47
2022-08-30T15:46:22.539Z,102341.09
2022-08-30T15:48:52.130Z,102345.19
2022-08-30T15:51:19.439Z,102333.56
2022-08-30T15:53:46.584Z,102332.72
2022-08-30T15:56:13.970Z,102333.94
2022-08-30T15:58:41.402Z,102343.50
2022-08-30T16:01:09.362Z,102341.16
2022-08-30T16:03:37.906Z,102334.34
2022-08-30T16:06:05.000Z,102346.78
2022-08-30T16:08:31.910Z,102331.94
2022-08-30T16:10:58.720Z,102333.94
2022-08-30T16:13:25.520Z,102325.53
2022-08-30T16:15:52.533Z,102323.91
2022-08-30T16:18:19.570Z,102315.84
2022-08-30T16:20:46.414Z,102325.00
2022-08-30T16:23:13.323Z,102316.97
2022-08-30T16:25:41.356Z,102308.22
2022-08-30T16:28:09.354Z,102307.44
2022-08-30T16:30:37.088Z,102306.28
2022-08-30T16:33:04.212Z,102309.91
2022-08-30T16:35:33.282Z,102308.31
2022-08-30T16:38:00.310Z,102315.16
2022-08-30T16:40:27.768Z,102318.38
2022-08-30T16:42:54.747Z,102313.94
2022-08-30T16:45:21.888Z,102307.50
2022-08-30T16:47:51.030Z,102307.13
2022-08-30T16:50:21.608Z,102305.91
2022-08-30T16:52:48.525Z,102297.06
2022-08-30T16:55:16.799Z,102310.31
2022-08-30T16:57:43.807Z,102297.06
2022-08-30T17:00:13.218Z,102299.84
2022-08-30T17:02:42.835Z,102306.72
2022-08-30T17:05:22.132Z,102299.88
2022-08-30T17:07:50.956Z,102305.06
2022-08-30T17:10:23.022Z,102297.44
2022-08-30T17:12:50.352Z,102305.06
2022-08-30T17:15:19.496Z,102300.63
2022-08-30T17:17:47.807Z,102304.22
2022-08-30T17:20:15.989Z,102303.41
2022-08-30T17:22:42.839Z,102300.97
2022-08-30T17:25:13.559Z,102300.16
2022-08-30T17:27:40.709Z,102304.88
2022-08-30T17:30:09.606Z,102311.28
2022-08-30T17:32:36.551Z,102308.06
2022-08-30T17:35:04.370Z,102299.19
2022-08-30T17:37:33.498Z,102299.16
2022-08-30T17:40:00.787Z,102310.34
2022-08-30T17:42:29.798Z,102308.75
2022-08-30T17:44:59.407Z,102301.94
2022-08-30T17:47:28.336Z,102309.53
2022-08-30T17:49:55.545Z,102315.91
2022-08-30T17:52:22.553Z,102312.72
2022-08-30T17:54:50.702Z,102325.50
2022-08-30T17:57:17.978Z,102326.28
2022-08-30T17:59:45.741Z,102317.44
2022-08-30T18:02:14.218Z,102325.00
2022-08-30T18:04:42.210Z,102320.56
2022-08-30T18:07:11.820Z,102329.66
2022-08-30T18:09:40.944Z,102328.00
2022-08-30T18:12:08.762Z,102325.97
2022-08-30T18:14:35.803Z,102332.34
2022-08-30T18:17:07.238Z,102339.50
2022-08-30T18:19:34.710Z,102345.47
2022-08-30T18:22:03.324Z,102346.19
2022-08-30T18:24:30.693Z,102342.91
2022-08-30T18:26:58.484Z,102345.66
2022-08-30T18:29:28.916Z,102355.19
2022-08-30T18:32:01.690Z,102353.16
2022-08-30T18:34:29.658Z,102346.31
2022-08-30T18:36:57.183Z,102354.25
2022-08-30T18:39:24.582Z,102355.88
2022-08-30T18:41:54.402Z,102359.06
2022-08-30T18:44:33.149Z,102368.19
2022-08-30T18:47:03.759Z,102364.91
2022-08-30T18:49:32.786Z,102361.97
2022-08-30T18:52:01.878Z,102373.50
2022-08-30T18:54:29.572Z,102373.84
2022-08-30T18:56:56.824Z,102364.63
2022-08-30T18:59:23.807Z,102377.38
2022-08-30T19:02:02.513Z,102375.28
2022-08-30T19:04:34.987Z,102383.56
2022-08-30T19:07:07.837Z,102393.53
2022-08-30T19:09:35.013Z,102387.53
2022-08-30T19:12:02.949Z,102394.72
2022-08-30T19:14:30.413Z,102395.03
2022-08-30T19:17:02.086Z,102383.00
2022-08-30T19:19:31.722Z,102396.56
2022-08-30T19:21:59.739Z,102403.72
2022-08-30T19:24:26.992Z,102397.72
2022-08-30T19:26:53.829Z,102402.50
2022-08-30T19:29:20.875Z,102400.75
2022-08-30T19:31:48.478Z,102395.88
2022-08-30T19:34:15.435Z,102397.81
2022-08-30T19:36:42.281Z,102403.34
2022-08-30T19:39:12.135Z,102406.47
2022-08-30T19:41:39.321Z,102407.16
2022-08-30T19:44:07.456Z,102407.00
2022-08-30T19:46:34.308Z,102402.09
2022-08-30T19:49:04.358Z,102406.91
2022-08-30T19:51:31.531Z,102409.63
2022-08-30T19:54:00.322Z,102408.81
2022-08-30T19:56:27.350Z,102412.38
2022-08-30T19:58:55.062Z,102419.13
2022-08-30T20:01:33.668Z,102410.69
2022-08-30T20:04:02.552Z,102408.22
2022-08-30T20:06:31.091Z,102414.94
2022-08-30T20:11:52.521Z,102409.53
2022-08-30T20:14:22.269Z,102414.22
2022-08-30T20:16:52.098Z,102411.88
2022-08-30T20:19:19.249Z,102414.22
2022-08-30T20:21:54.683Z,102420.94
2022-08-30T20:27:08.873Z,102416.88
2022-08-30T20:29:37.846Z,102418.88
2022-08-30T20:32:04.795Z,102415.34
2022-08-30T20:34:31.848Z,102408.50
2022-08-30T20:36:58.846Z,102418.09
2022-08-30T20:39:25.823Z,102413.91
2022-08-30T20:41:52.847Z,102418.19
2022-08-30T20:44:19.737Z,102416.47
2022-08-30T20:46:48.058Z,102417.69
2022-08-30T20:49:15.212Z,102411.72
2022-08-30T20:51:42.377Z,102420.66
2022-08-30T20:54:09.534Z,102424.41
2022-08-30T20:56:36.692Z,102430.09
2022-08-30T20:59:05.556Z,102415.78
2022-08-30T21:01:35.721Z,102427.88
2022-08-30T21:04:06.037Z,102425.97
2022-08-30T21:06:37.679Z,102423.66
2022-08-30T21:09:06.490Z,102427.69
2022-08-30T21:11:34.950Z,102421.75
2022-08-30T21:14:02.550Z,102428.69
2022-08-30T21:16:31.218Z,102430.78
2022-08-30T21:18:58.163Z,102429.69
2022-08-30T21:21:28.006Z,102432.16
2022-08-30T21:23:59.197Z,102440.53
2022-08-30T21:26:26.339Z,102436.56
2022-08-30T21:28:54.922Z,102441.34
2022-08-30T21:31:25.250Z,102446.56
2022-08-30T21:33:54.417Z,102442.22
2022-08-30T21:36:41.876Z,102447.09
2022-08-30T21:39:09.405Z,102445.13
2022-08-30T21:41:37.729Z,102453.50
2022-08-30T21:44:08.295Z,102450.78
2022-08-30T21:46:36.205Z,102449.22
2022-08-30T21:49:06.861Z,102450.91
2022-08-30T21:51:40.682Z,102447.78
2022-08-30T21:54:09.762Z,102448.66
2022-08-30T21:56:39.292Z,102450.22
2022-08-30T21:59:07.748Z,102457.84
2022-08-30T22:01:36.633Z,102447.78
2022-08-30T22:04:07.774Z,102459.50
2022-08-30T22:06:37.712Z,102460.38
2022-08-30T22:09:08.799Z,102465.22
2022-08-30T22:11:36.791Z,102463.59
2022-08-30T22:14:05.496Z,102470.34
2022-08-30T22:16:32.663Z,102464.75
2022-08-30T22:19:01.386Z,102471.97
2022-08-30T22:21:31.181Z,102480.31
2022-08-30T22:23:58.809Z,102486.59
2022-08-30T22:26:26.417Z,102481.38
2022-08-30T22:28:54.593Z,102479.34
2022-08-30T22:31:22.588Z,102482.75
2022-08-30T22:33:50.437Z,102487.44
2022-08-30T22:36:24.461Z,102476.63
2022-08-30T22:39:00.029Z,102485.22
2022-08-30T22:41:30.026Z,102481.88
2022-08-30T22:43:58.833Z,102484.47
2022-08-30T22:46:34.206Z,102487.13
2022-08-30T22:49:03.607Z,102486.06
2022-08-30T22:51:30.641Z,102491.50
2022-08-30T22:53:58.050Z,102490.66
2022-08-30T22:56:26.242Z,102489.91
2022-08-30T22:58:54.847Z,102492.25
2022-08-30T23:01:26.736Z,102494.84
2022-08-30T23:03:54.291Z,102496.38
2022-08-30T23:06:21.754Z,102485.56
2022-08-30T23:08:48.946Z,102481.97
2022-08-30T23:11:17.077Z,102484.75
2022-08-30T23:13:44.433Z,102485.53
2022-08-30T23:16:13.075Z,102480.56
2022-08-30T23:18:42.172Z,102485.66
2022-08-30T23:21:12.390Z,102489.09
2022-08-30T23:23:58.249Z,102483.66
2022-08-30T23:26:44.174Z,102487.97
2022-08-30T23:29:30.676Z,102490.03
2022-08-30T23:32:16.502Z,102493.47
2022-08-30T23:35:02.642Z,102490.16
2022-08-30T23:37:48.605Z,102492.78
2022-08-30T23:40:40.070Z,102492.28
2022-08-30T23:43:26.744Z,102496.88
2022-08-30T23:46:15.152Z,102492.66
2022-08-30T23:49:04.763Z,102489.44
2022-08-30T23:51:50.236Z,102486.66
2022-08-30T23:54:35.875Z,102490.53
2022-08-30T23:57:21.713Z,102497.28
